Meteo Giornale » Osservazioni meteo Italia » Catania-Fontanarossa

ore: 10:20 - Osservazioni Meteo Catania-Fontanarossa
Lat. 37° 28' N Lon. 15° 3' E Alt. 11 metri s.l.m.

sereno Europe/Rome

29 °C

Sereno

Temp. 24 Ore

20 °C

32 °C

Nord

3.7 Km/h

Dew point 18 °C

Umidità 51 %

Visibilità  10 Km

Il sole sorge alle ore 06:43

Il sole tramonta alle ore 19:04

Data e Ora Cielo e Fenomeni T °C DP °C Um. % Pres. hPa Vis. km Vento km/h
Oggi h: 10:20 sereno Sereno 29 18 51 1014 10 N 3.7
Oggi h: 09:50 sereno Sereno 28 18 54 1014 10 N 5.5
Oggi h: 09:20 sereno Sereno 26 18 61 1014 10 N 5.5
Oggi h: 08:50 sereno Sereno 25 18 65 1014 10 O/SO 9.3
Oggi h: 08:20 sereno Sereno 23 18 73 1014 10 N 5.5
Oggi h: 07:50 sereno Sereno 21 18 82 1013 10 N 5.5
Oggi h: 07:20 sereno Sereno 20 17 82 1013 10 N 3.7
Oggi h: 06:50 sereno Sereno 20 17 82 1013 10 O/SO 11.1
Oggi h: 06:20 sereno Sereno 20 17 82 1013 10 O 9.3
Oggi h: 05:50 sereno Sereno 20 18 88 1013 10 O/SO 9.3
Oggi h: 05:20 sereno Sereno 20 17 82 1012 10 O 7.4
Oggi h: 04:50 sereno Sereno 21 18 82 1012 10 O/SO 11.1
Oggi h: 03:50 sereno Sereno 21 17 77 1012 10 O 7.4
Oggi h: 03:20 sereno Sereno 21 17 77 1012 10 O/SO 13
Oggi h: 02:50 sereno Sereno 21 17 77 1013 10 O/SO 13
Oggi h: 02:20 sereno Sereno 21 18 82 1013 10 O/SO 13
Oggi h: 01:50 sereno Sereno 21 18 82 1013 10 O/SO 11.1
Oggi h: 01:20 sereno Sereno 22 18 78 1013 10 O 9.3
Oggi h: 00:50 sereno Sereno 22 18 78 1013 10 N 5.5
Oggi h: 00:20 sereno Sereno 22 17 73 1013 10 O/SO 11.1
Ieri h: 23:50 sereno Sereno 23 17 68 1013 10 O 11.1
Ieri h: 22:50 sereno Sereno 23 17 68 1013 10 O/SO 13
Ieri h: 22:20 sereno Sereno 24 17 64 1013 10 O 13
Ieri h: 21:50 sereno Sereno 25 17 61 1013 10 O/SO 14.8
Ieri h: 21:20 sereno Sereno 26 16 54 1012 10 SO 14.8
Ieri h: 20:50 sereno Sereno 27 16 50 1012 10 SO 22.2
Ieri h: 20:20 poco_nuvoloso Poco Nuvoloso 28 15 45 1012 10 S/SO 20.3
Ieri h: 19:50 nuvoloso Nuvoloso 27 18 57 1012 10 SO 16.7
Ieri h: 19:20 nuvoloso Nuvoloso 28 18 54 1011 10 E 13
Ieri h: 18:50 nuvoloso Nuvoloso 29 18 51 1011 10 E/SE 13
Ieri h: 18:20 nuvoloso Nuvoloso 29 17 48 1010 10 E/SE 14.8
Ieri h: 17:50 nuvoloso Nuvoloso 29 18 51 1010 10 SE 16.7
Ieri h: 17:20 nuvoloso Nuvoloso 29 19 54 1010 10 E/SE 14.8
Ieri h: 16:50 nuvoloso Nuvoloso 30 17 45 1010 10 E 16.7
Ieri h: 16:20 nuvoloso Nuvoloso 30 16 42 1010 10 E 16.7
Ieri h: 15:20 nuvoloso Nuvoloso 32 15 35 1010 10 E/SE 18.5
Ieri h: 14:50 poco_nuvoloso Poco Nuvoloso 32 16 38 1010 10 SE 18.5
Ieri h: 14:20 nuvoloso Nuvoloso 31 15 37 1010 10 S/SE 16.7
Ieri h: 13:50 nuvoloso Nuvoloso 30 15 40 1010 10 S 13
Ieri h: 13:20 nuvoloso Nuvoloso 30 16 42 1010 10 S/SE 14.8
Ieri h: 12:50 sereno Sereno 30 16 42 1010 10 SE 14.8
Ieri h: 12:20 sereno Sereno 30 16 42 1010 10 E/SE 11.1
Ieri h: 11:50 sereno Sereno 30 20 55 1010 10 S 9.3
Ieri h: 11:20 sereno Sereno 28 19 58 1010 10 S/SO 14.8
Ieri h: 10:50 sereno Sereno 28 19 58 1010 10 S 9.3